createdAt,value
2022-11-15T00:01:18.161Z,1.55
2022-11-15T00:04:04.196Z,3.50
2022-11-15T00:06:49.959Z,2.83
2022-11-15T00:09:35.644Z,3.53
2022-11-15T00:12:20.850Z,2.80
2022-11-15T00:15:07.065Z,4.40
2022-11-15T00:17:52.433Z,1.47
2022-11-15T00:20:38.298Z,2.78
2022-11-15T00:23:24.010Z,2.67
2022-11-15T00:26:14.021Z,2.63
2022-11-15T00:28:59.823Z,2.93
2022-11-15T00:31:45.435Z,2.00
2022-11-15T00:34:30.804Z,5.63
2022-11-15T00:37:16.590Z,2.47
2022-11-15T00:40:02.221Z,1.33
2022-11-15T00:42:47.939Z,2.33
2022-11-15T00:45:33.221Z,2.53
2022-11-15T00:48:18.491Z,3.10
2022-11-15T00:51:04.271Z,1.13
2022-11-15T00:53:49.684Z,2.27
2022-11-15T00:56:35.355Z,8.00
2022-11-15T00:59:21.116Z,2.30
2022-11-15T01:02:06.440Z,2.53
2022-11-15T01:04:52.087Z,2.20
2022-11-15T01:07:37.540Z,2.40
2022-11-15T01:10:24.043Z,2.20
2022-11-15T01:13:09.771Z,3.20
2022-11-15T01:15:55.400Z,3.17
2022-11-15T01:18:42.106Z,6.20
2022-11-15T01:21:28.100Z,9.85
2022-11-15T01:24:14.322Z,3.47
2022-11-15T01:26:59.883Z,4.43
2022-11-15T01:29:45.252Z,3.73
2022-11-15T01:32:31.095Z,5.90
2022-11-15T01:35:16.836Z,5.73
2022-11-15T01:38:02.312Z,2.00
2022-11-15T01:40:48.279Z,3.17
2022-11-15T01:43:36.500Z,2.63
2022-11-15T01:46:36.356Z,2.67
2022-11-15T01:49:23.840Z,2.87
2022-11-15T01:52:15.034Z,2.30
2022-11-15T01:55:06.666Z,2.20
2022-11-15T01:57:56.586Z,3.53
2022-11-15T02:00:42.759Z,1.33
2022-11-15T02:03:36.679Z,3.37
2022-11-15T02:06:23.446Z,3.93
2022-11-15T02:09:08.942Z,4.20
2022-11-15T02:11:56.359Z,5.10
2022-11-15T02:14:45.633Z,3.10
2022-11-15T02:18:03.609Z,4.63
2022-11-15T02:21:04.134Z,2.08
2022-11-15T02:24:03.321Z,2.43
2022-11-15T02:27:03.819Z,2.93
2022-11-15T02:30:19.847Z,1.53
2022-11-15T02:33:11.934Z,8.80
2022-11-15T02:36:18.934Z,1.50
2022-11-15T02:39:09.659Z,9.47
2022-11-15T02:42:05.223Z,3.03
2022-11-15T02:44:51.849Z,1.60
2022-11-15T02:47:44.162Z,1.27
2022-11-15T02:50:31.342Z,3.40
2022-11-15T02:53:16.877Z,5.60
2022-11-15T02:56:02.652Z,3.53
2022-11-15T02:59:19.731Z,4.97
2022-11-15T03:02:15.963Z,4.00
2022-11-15T03:05:16.811Z,8.33
2022-11-15T03:08:09.388Z,5.27
2022-11-15T03:11:11.073Z,6.50
2022-11-15T03:14:01.595Z,9.30
2022-11-15T03:16:58.354Z,8.53
2022-11-15T03:19:49.470Z,5.30
2022-11-15T03:22:39.528Z,3.63
2022-11-15T03:25:28.069Z,4.97
2022-11-15T03:28:48.228Z,7.83
2022-11-15T03:31:50.908Z,5.30
2022-11-15T03:34:45.699Z,3.07
2022-11-15T03:37:39.095Z,4.97
2022-11-15T03:40:32.217Z,9.80
2022-11-15T03:43:48.351Z,7.03
2022-11-15T03:46:55.095Z,10.03
2022-11-15T03:49:47.046Z,10.73
2022-11-15T03:52:34.832Z,8.97
2022-11-15T03:55:22.037Z,7.23
2022-11-15T03:58:07.858Z,3.17
2022-11-15T04:00:53.526Z,12.40
2022-11-15T04:03:39.527Z,3.20
2022-11-15T04:06:25.081Z,10.67
2022-11-15T04:09:10.614Z,6.30
2022-11-15T04:11:56.102Z,8.50
2022-11-15T04:15:01.111Z,3.63
2022-11-15T04:17:48.488Z,6.40
2022-11-15T04:20:52.637Z,5.28
2022-11-15T04:23:57.198Z,2.87
2022-11-15T04:26:43.131Z,3.63
2022-11-15T04:29:37.963Z,2.77
2022-11-15T04:32:23.831Z,8.33
2022-11-15T04:35:10.291Z,3.57
2022-11-15T04:37:57.149Z,9.93
2022-11-15T04:40:42.609Z,15.65
2022-11-15T04:43:28.219Z,5.93
2022-11-15T04:46:13.396Z,7.00
2022-11-15T04:48:59.461Z,5.57
2022-11-15T04:51:45.743Z,5.75
2022-11-15T04:54:31.130Z,4.17
2022-11-15T04:57:17.011Z,3.00
2022-11-15T05:00:07.785Z,4.77
2022-11-15T05:03:11.924Z,4.90
2022-11-15T05:05:58.621Z,8.83
2022-11-15T05:08:43.898Z,4.72
2022-11-15T05:11:29.138Z,8.97
2022-11-15T05:14:15.363Z,8.73
2022-11-15T05:17:01.389Z,5.23
2022-11-15T05:19:46.596Z,2.30
2022-11-15T05:22:31.934Z,5.13
2022-11-15T05:25:17.398Z,8.67
2022-11-15T05:28:02.940Z,19.63
2022-11-15T05:30:48.753Z,12.90
2022-11-15T05:33:36.341Z,2.00
2022-11-15T05:36:40.577Z,4.27
2022-11-15T05:39:27.097Z,14.13
2022-11-15T05:42:16.925Z,5.10
2022-11-15T05:45:05.948Z,24.43
2022-11-15T05:47:52.640Z,6.23
2022-11-15T05:50:42.448Z,6.28
2022-11-15T05:53:28.143Z,5.67
2022-11-15T05:56:13.813Z,7.50
2022-11-15T05:59:00.282Z,4.53
2022-11-15T06:01:47.024Z,4.30
2022-11-15T06:04:32.527Z,6.33
2022-11-15T06:07:18.520Z,4.03
2022-11-15T06:10:04.570Z,3.63
2022-11-15T06:12:58.252Z,7.33
2022-11-15T06:15:43.565Z,7.80
2022-11-15T06:18:29.145Z,11.73
2022-11-15T06:21:14.740Z,5.37
2022-11-15T06:24:00.000Z,2.00
2022-11-15T06:26:45.250Z,4.20
2022-11-15T06:29:30.440Z,15.60
2022-11-15T06:32:16.187Z,6.70
2022-11-15T06:35:01.529Z,8.73
2022-11-15T06:37:47.313Z,4.63
2022-11-15T06:40:38.570Z,5.83
2022-11-15T06:43:24.478Z,4.47
2022-11-15T06:46:10.586Z,6.77
2022-11-15T06:48:56.124Z,10.53
2022-11-15T06:51:41.623Z,4.67
2022-11-15T06:54:27.368Z,4.60
2022-11-15T06:57:12.984Z,8.17
2022-11-15T06:59:58.260Z,4.57
2022-11-15T07:02:43.867Z,10.37
2022-11-15T07:05:29.748Z,5.27
2022-11-15T07:08:15.456Z,13.97
2022-11-15T07:11:03.687Z,5.93
2022-11-15T07:13:49.390Z,16.47
2022-11-15T07:16:34.854Z,15.37
2022-11-15T07:19:20.334Z,9.17
2022-11-15T07:22:06.289Z,7.88
2022-11-15T07:24:52.023Z,2.37
2022-11-15T07:27:38.076Z,10.47
2022-11-15T07:30:24.155Z,60.42
2022-11-15T07:33:09.733Z,9.80
2022-11-15T07:35:59.319Z,4.80
2022-11-15T07:38:44.945Z,5.80
2022-11-15T07:41:31.081Z,4.93
2022-11-15T07:44:16.688Z,5.27
2022-11-15T07:47:02.056Z,4.32
2022-11-15T07:49:48.128Z,4.65
2022-11-15T07:52:33.444Z,12.27
2022-11-15T07:55:19.115Z,5.05
2022-11-15T07:58:07.110Z,12.90
2022-11-15T08:00:52.526Z,10.10
2022-11-15T08:03:38.501Z,14.03
2022-11-15T08:06:24.083Z,17.43
2022-11-15T08:09:09.457Z,5.03
2022-11-15T08:11:55.076Z,10.90
2022-11-15T08:14:40.778Z,5.47
2022-11-15T08:17:27.343Z,13.02
2022-11-15T08:20:12.899Z,8.83
2022-11-15T08:23:00.126Z,18.10
2022-11-15T08:28:32.944Z,11.27
2022-11-15T08:31:19.449Z,4.85
2022-11-15T08:34:05.669Z,11.20
2022-11-15T08:36:51.313Z,11.30
2022-11-15T08:39:36.593Z,8.38
2022-11-15T08:42:22.258Z,12.10
2022-11-15T08:45:09.500Z,6.40
2022-11-15T08:50:40.950Z,8.95
2022-11-15T08:53:26.834Z,15.37
2022-11-15T08:56:14.176Z,7.35
2022-11-15T08:59:01.006Z,9.50
2022-11-15T09:01:46.809Z,8.97
2022-11-15T09:04:33.087Z,12.77
2022-11-15T09:07:19.258Z,7.93
2022-11-15T09:10:05.449Z,7.27
2022-11-15T09:12:50.652Z,4.87
2022-11-15T09:15:36.448Z,10.73
2022-11-15T09:18:23.779Z,9.03
2022-11-15T09:21:10.338Z,7.10
2022-11-15T09:23:56.262Z,4.65
2022-11-15T09:26:42.163Z,11.35
2022-11-15T09:29:29.848Z,7.20
2022-11-15T09:35:00.393Z,6.03
2022-11-15T09:37:46.715Z,8.20
2022-11-15T09:40:33.720Z,5.17
2022-11-15T09:43:27.866Z,4.22
2022-11-15T09:46:19.688Z,8.20
2022-11-15T09:52:12.198Z,7.00
2022-11-15T09:54:56.599Z,8.33
2022-11-15T09:58:01.978Z,9.10
2022-11-15T10:00:46.481Z,9.40
2022-11-15T10:03:37.536Z,5.13
2022-11-15T10:06:06.514Z,7.50
2022-11-15T10:08:56.601Z,8.68
2022-11-15T10:11:37.251Z,7.23
2022-11-15T10:14:19.758Z,7.43
2022-11-15T10:17:15.405Z,11.40
2022-11-15T10:19:42.392Z,6.07
2022-11-15T10:22:30.385Z,3.88
2022-11-15T10:25:14.577Z,16.55
2022-11-15T10:27:44.358Z,5.50
2022-11-15T10:30:14.705Z,17.00
2022-11-15T10:32:44.098Z,6.07
2022-11-15T10:35:21.689Z,19.23
2022-11-15T10:37:48.946Z,17.90
2022-11-15T10:40:17.823Z,12.82
2022-11-15T10:42:44.921Z,7.37
2022-11-15T10:45:27.795Z,4.73
2022-11-15T10:47:55.069Z,5.90
2022-11-15T10:50:31.194Z,4.97
2022-11-15T10:52:59.445Z,8.65
2022-11-15T10:55:30.098Z,8.57
2022-11-15T10:58:07.663Z,13.53
2022-11-15T11:00:39.634Z,5.83
2022-11-15T11:03:29.270Z,6.50
2022-11-15T11:06:06.613Z,11.53
2022-11-15T11:08:35.136Z,11.13
2022-11-15T11:11:04.208Z,11.77
2022-11-15T11:13:39.403Z,13.43
2022-11-15T11:16:15.148Z,9.90
2022-11-15T11:19:09.947Z,6.77
2022-11-15T11:21:50.795Z,7.93
2022-11-15T11:24:27.222Z,6.53
2022-11-15T11:27:39.135Z,6.30
2022-11-15T11:30:08.937Z,6.80
2022-11-15T11:32:35.838Z,9.77
2022-11-15T11:35:23.811Z,4.90
2022-11-15T11:38:10.874Z,22.07
2022-11-15T11:41:21.453Z,8.70
2022-11-15T11:44:03.650Z,13.60
2022-11-15T11:46:43.532Z,9.37
2022-11-15T11:49:16.600Z,6.50
2022-11-15T11:52:00.000Z,4.77
2022-11-15T11:54:38.155Z,9.90
2022-11-15T11:57:13.845Z,8.10
2022-11-15T11:59:58.273Z,10.17
2022-11-15T12:02:42.729Z,5.30
2022-11-15T12:05:46.402Z,5.07
2022-11-15T12:08:25.666Z,5.90
2022-11-15T12:11:18.780Z,7.70
2022-11-15T12:13:49.949Z,7.73
2022-11-15T12:16:32.178Z,9.97
2022-11-15T12:19:04.766Z,16.57
2022-11-15T12:21:49.730Z,13.17
2022-11-15T12:24:25.847Z,7.10
2022-11-15T12:26:58.988Z,5.10
2022-11-15T12:29:40.202Z,6.77
2022-11-15T12:32:39.108Z,10.50
2022-11-15T12:35:24.186Z,6.07
2022-11-15T12:37:56.624Z,9.37
2022-11-15T12:40:38.507Z,6.40
2022-11-15T12:43:14.273Z,10.83
2022-11-15T12:45:46.404Z,11.70
2022-11-15T12:48:19.477Z,6.30
2022-11-15T12:50:55.402Z,11.33
2022-11-15T12:53:28.774Z,5.68
2022-11-15T12:56:14.143Z,8.83
2022-11-15T12:58:49.686Z,14.20
2022-11-15T13:01:42.418Z,11.53
2022-11-15T13:04:30.267Z,7.90
2022-11-15T13:07:02.005Z,5.17
2022-11-15T13:09:34.922Z,10.07
2022-11-15T13:12:04.897Z,15.97
2022-11-15T13:14:52.341Z,9.47
2022-11-15T13:17:31.408Z,7.70
2022-11-15T13:20:03.182Z,7.97
2022-11-15T13:22:53.394Z,7.70
2022-11-15T13:25:35.681Z,7.80
2022-11-15T13:28:17.809Z,9.33
2022-11-15T13:30:47.708Z,10.70
2022-11-15T13:33:24.929Z,8.67
2022-11-15T13:35:55.745Z,8.73
2022-11-15T13:38:25.672Z,12.87
2022-11-15T13:40:52.532Z,6.77
2022-11-15T13:43:22.527Z,9.67
2022-11-15T13:46:18.477Z,8.00
2022-11-15T13:48:48.129Z,9.53
2022-11-15T13:51:18.353Z,8.60
2022-11-15T13:53:52.472Z,6.77
2022-11-15T13:56:20.947Z,5.70
2022-11-15T13:58:48.467Z,10.17
2022-11-15T14:01:20.778Z,12.00
2022-11-15T14:04:00.584Z,6.77
2022-11-15T14:06:30.891Z,11.17
2022-11-15T14:09:10.056Z,10.83
2022-11-15T14:11:37.118Z,12.00
2022-11-15T14:14:10.138Z,6.40
2022-11-15T14:16:45.773Z,4.23
2022-11-15T14:19:34.735Z,11.40
2022-11-15T14:22:22.162Z,7.10
2022-11-15T14:27:34.949Z,8.13
2022-11-15T14:30:02.027Z,10.20
2022-11-15T14:32:43.919Z,9.73
2022-11-15T14:35:16.771Z,6.90
2022-11-15T14:37:43.980Z,14.80
2022-11-15T14:40:15.634Z,10.17
2022-11-15T14:42:43.545Z,6.57
2022-11-15T14:45:19.101Z,7.63
2022-11-15T14:47:46.487Z,8.30
2022-11-15T14:50:23.039Z,3.33
2022-11-15T14:52:50.323Z,4.53
2022-11-15T14:55:26.580Z,7.53
2022-11-15T14:57:56.247Z,4.88
2022-11-15T15:00:23.512Z,6.43
2022-11-15T15:02:53.715Z,11.37
2022-11-15T15:05:27.839Z,11.90
2022-11-15T15:07:54.935Z,17.97
2022-11-15T15:10:39.444Z,11.57
2022-11-15T15:13:14.851Z,7.83
2022-11-15T15:15:41.809Z,13.20
2022-11-15T15:18:09.704Z,8.67
2022-11-15T15:20:39.407Z,7.17
2022-11-15T15:23:06.551Z,8.13
2022-11-15T15:25:35.992Z,8.20
2022-11-15T15:28:03.299Z,11.30
2022-11-15T15:30:31.505Z,10.63
2022-11-15T15:32:58.842Z,7.20
2022-11-15T15:35:30.498Z,10.90
2022-11-15T15:37:57.735Z,10.53
2022-11-15T15:40:26.449Z,8.20
2022-11-15T15:42:53.379Z,9.07
2022-11-15T15:45:20.493Z,10.03
2022-11-15T15:47:48.065Z,6.27
2022-11-15T15:50:29.955Z,11.23
2022-11-15T15:52:59.273Z,16.77
2022-11-15T15:55:27.055Z,9.60
2022-11-15T15:57:54.275Z,12.27
2022-11-15T16:00:24.191Z,7.80
2022-11-15T16:02:51.678Z,7.40
2022-11-15T16:05:19.221Z,10.07
2022-11-15T16:07:47.556Z,9.47
2022-11-15T16:10:26.394Z,12.53
2022-11-15T16:12:54.398Z,6.93
2022-11-15T16:15:23.222Z,11.23
2022-11-15T16:17:55.482Z,8.77
2022-11-15T16:20:33.114Z,10.20
2022-11-15T16:23:05.805Z,13.53
2022-11-15T16:25:40.985Z,11.10
2022-11-15T16:28:21.719Z,11.33
2022-11-15T16:30:53.844Z,12.80
2022-11-15T16:33:23.790Z,18.33
2022-11-15T16:35:50.855Z,12.53
2022-11-15T16:38:18.750Z,14.93
2022-11-15T16:40:46.180Z,9.60
2022-11-15T16:43:13.063Z,13.80
2022-11-15T16:45:40.138Z,13.00
2022-11-15T16:48:07.172Z,13.57
2022-11-15T16:50:41.633Z,10.53
2022-11-15T16:53:08.602Z,13.67
2022-11-15T16:55:35.511Z,14.30
2022-11-15T16:58:02.540Z,14.47
2022-11-15T17:00:29.640Z,11.97
2022-11-15T17:02:57.914Z,15.30
2022-11-15T17:05:27.439Z,15.60
2022-11-15T17:07:54.435Z,14.97
2022-11-15T17:10:22.953Z,10.70
2022-11-15T17:12:50.949Z,11.50
2022-11-15T17:15:18.349Z,9.47
2022-11-15T17:17:51.161Z,9.07
2022-11-15T17:20:19.904Z,17.37
2022-11-15T17:22:47.468Z,14.60
2022-11-15T17:25:14.851Z,12.63
2022-11-15T17:27:41.884Z,9.93
2022-11-15T17:30:10.491Z,9.83
2022-11-15T17:32:38.110Z,10.70
2022-11-15T17:35:14.906Z,13.30
2022-11-15T17:37:42.417Z,10.03
2022-11-15T17:40:09.900Z,11.37
2022-11-15T17:42:37.024Z,9.37
2022-11-15T17:45:09.556Z,12.63
2022-11-15T17:47:37.510Z,10.77
2022-11-15T17:50:04.791Z,9.27
2022-11-15T17:52:31.806Z,9.80
2022-11-15T17:54:58.868Z,12.40
2022-11-15T17:57:25.784Z,13.20
2022-11-15T17:59:52.707Z,10.57
2022-11-15T18:02:19.706Z,8.63
2022-11-15T18:04:46.583Z,11.87
2022-11-15T18:07:14.354Z,11.40
2022-11-15T18:09:44.199Z,11.13
2022-11-15T18:12:12.200Z,13.90
2022-11-15T18:14:39.513Z,13.13
2022-11-15T18:17:06.600Z,11.03
2022-11-15T18:19:33.913Z,10.33
2022-11-15T18:22:01.854Z,12.20
2022-11-15T18:24:38.531Z,13.73
2022-11-15T18:27:06.609Z,10.40
2022-11-15T18:29:37.696Z,15.80
2022-11-15T18:32:11.728Z,11.00
2022-11-15T18:34:39.112Z,9.70
2022-11-15T18:37:06.325Z,11.77
2022-11-15T18:39:33.364Z,15.20
2022-11-15T18:42:00.492Z,12.13
2022-11-15T18:44:30.208Z,17.10
2022-11-15T18:46:57.593Z,12.57
2022-11-15T18:49:24.503Z,15.17
2022-11-15T18:51:51.527Z,14.27
2022-11-15T18:54:18.445Z,11.17
2022-11-15T18:56:45.993Z,10.60
2022-11-15T18:59:16.287Z,11.43
2022-11-15T19:01:48.006Z,12.03
2022-11-15T19:04:18.670Z,13.43
2022-11-15T19:06:48.818Z,11.17
2022-11-15T19:09:17.831Z,11.93
2022-11-15T19:11:46.588Z,12.57
2022-11-15T19:14:16.897Z,15.57
2022-11-15T19:16:52.409Z,13.37
2022-11-15T19:19:22.124Z,14.77
2022-11-15T19:21:49.404Z,11.30
2022-11-15T19:24:16.468Z,13.60
2022-11-15T19:26:47.136Z,12.87
2022-11-15T19:29:14.399Z,13.07
2022-11-15T19:31:42.338Z,17.77
2022-11-15T19:34:10.569Z,13.37
2022-11-15T19:36:40.772Z,11.50
2022-11-15T19:39:11.964Z,15.37
2022-11-15T19:41:44.065Z,12.37
2022-11-15T19:44:12.624Z,13.50
2022-11-15T19:46:40.406Z,10.53
2022-11-15T19:49:10.506Z,14.80
2022-11-15T19:51:39.087Z,12.60
2022-11-15T19:54:08.884Z,10.27
2022-11-15T19:56:37.233Z,13.60
2022-11-15T19:59:05.286Z,13.53
2022-11-15T20:01:36.396Z,13.50
2022-11-15T20:04:04.153Z,10.40
2022-11-15T20:06:34.071Z,9.50
2022-11-15T20:09:01.387Z,12.93
2022-11-15T20:11:28.541Z,9.93
2022-11-15T20:14:01.931Z,18.13
2022-11-15T20:16:29.568Z,10.70
2022-11-15T20:18:56.633Z,10.57
2022-11-15T20:21:23.922Z,12.77
2022-11-15T20:23:51.911Z,10.83
2022-11-15T20:26:20.352Z,11.00
2022-11-15T20:28:48.309Z,11.50
2022-11-15T20:31:16.439Z,10.40
2022-11-15T20:33:43.630Z,17.97
2022-11-15T20:36:13.123Z,11.33
2022-11-15T20:38:40.100Z,10.77
2022-11-15T20:41:07.814Z,13.07
2022-11-15T20:43:35.059Z,8.83
2022-11-15T20:46:02.074Z,12.87
2022-11-15T20:48:29.196Z,12.03
2022-11-15T20:51:12.497Z,15.50
2022-11-15T20:53:43.793Z,13.70
2022-11-15T20:56:16.860Z,11.20
2022-11-15T20:58:45.904Z,13.97
2022-11-15T21:01:15.723Z,13.70
2022-11-15T21:03:42.843Z,13.20
2022-11-15T21:06:11.747Z,14.50
2022-11-15T21:08:57.543Z,13.97
2022-11-15T21:11:43.946Z,15.20
2022-11-15T21:14:11.171Z,15.80
2022-11-15T21:16:39.665Z,27.97
2022-11-15T21:19:07.033Z,20.37
2022-11-15T21:21:35.789Z,21.77
2022-11-15T21:24:07.764Z,24.47
2022-11-15T21:26:36.009Z,30.63
2022-11-15T21:29:03.754Z,31.07
2022-11-15T21:31:32.069Z,29.53
2022-11-15T21:34:02.435Z,27.13
2022-11-15T21:36:29.826Z,29.23
2022-11-15T21:38:56.804Z,34.50
2022-11-15T21:41:23.770Z,31.53
2022-11-15T21:43:50.834Z,28.10
2022-11-15T21:46:17.703Z,30.50
2022-11-15T21:48:44.634Z,30.70
2022-11-15T21:51:11.941Z,26.67
2022-11-15T21:53:39.338Z,32.70
2022-11-15T21:56:07.086Z,30.90
2022-11-15T21:58:34.787Z,28.63
2022-11-15T22:01:20.501Z,26.93
2022-11-15T22:03:47.771Z,23.10
2022-11-15T22:06:17.984Z,20.07
2022-11-15T22:08:46.406Z,26.80
2022-11-15T22:11:14.735Z,24.23
2022-11-15T22:13:42.174Z,21.73
2022-11-15T22:16:10.191Z,19.03
2022-11-15T22:18:38.060Z,21.83
2022-11-15T22:21:07.748Z,18.90
2022-11-15T22:23:35.311Z,19.33
2022-11-15T22:26:02.897Z,16.30
2022-11-15T22:28:31.086Z,16.93
2022-11-15T22:31:00.172Z,15.93
2022-11-15T22:33:29.678Z,15.60
2022-11-15T22:35:56.929Z,14.03
2022-11-15T22:38:24.339Z,16.43
2022-11-15T22:40:51.332Z,16.10
2022-11-15T22:43:20.438Z,14.27
2022-11-15T22:45:57.537Z,17.30
2022-11-15T22:48:28.825Z,17.87
2022-11-15T22:50:56.271Z,12.67
2022-11-15T22:53:23.996Z,12.53
2022-11-15T22:55:56.307Z,18.67
2022-11-15T22:58:26.983Z,16.53
2022-11-15T23:00:56.821Z,13.50
2022-11-15T23:03:25.354Z,13.23
2022-11-15T23:05:52.888Z,14.87
2022-11-15T23:08:20.264Z,11.63
2022-11-15T23:11:05.877Z,19.47
2022-11-15T23:13:33.837Z,15.67
2022-11-15T23:16:25.933Z,18.27
2022-11-15T23:19:13.359Z,17.70
2022-11-15T23:22:01.192Z,16.48
2022-11-15T23:24:28.855Z,11.97
2022-11-15T23:27:01.712Z,15.00
2022-11-15T23:29:29.792Z,18.67
2022-11-15T23:32:16.019Z,15.37
2022-11-15T23:34:45.794Z,15.93
2022-11-15T23:37:15.338Z,16.07
2022-11-15T23:39:42.497Z,14.83
2022-11-15T23:42:19.775Z,18.97
2022-11-15T23:44:50.027Z,18.33
2022-11-15T23:47:18.763Z,18.53
2022-11-15T23:49:47.288Z,19.83
2022-11-15T23:52:15.724Z,16.87
2022-11-15T23:54:43.031Z,19.63
2022-11-15T23:57:12.129Z,19.97
2022-11-15T23:59:40.254Z,19.37
